createdAt,value
2023-04-28T00:01:12.604Z,8.40
2023-04-28T00:03:39.073Z,5.70
2023-04-28T00:06:05.982Z,5.60
2023-04-28T00:08:32.753Z,6.78
2023-04-28T00:10:59.354Z,6.03
2023-04-28T00:13:25.757Z,6.68
2023-04-28T00:15:53.113Z,9.15
2023-04-28T00:18:20.640Z,5.60
2023-04-28T00:20:47.203Z,8.95
2023-04-28T00:23:13.614Z,4.75
2023-04-28T00:25:40.089Z,8.25
2023-04-28T00:28:06.478Z,5.22
2023-04-28T00:30:32.846Z,4.95
2023-04-28T00:32:59.330Z,7.88
2023-04-28T00:35:25.830Z,4.93
2023-04-28T00:37:52.254Z,6.43
2023-04-28T00:40:18.697Z,6.88
2023-04-28T00:42:45.171Z,5.10
2023-04-28T00:45:11.800Z,5.05
2023-04-28T00:47:38.315Z,7.03
2023-04-28T00:50:08.921Z,6.35
2023-04-28T00:52:35.430Z,9.32
2023-04-28T00:55:02.312Z,6.55
2023-04-28T00:57:29.690Z,5.60
2023-04-28T00:59:56.084Z,5.72
2023-04-28T01:02:23.007Z,6.38
2023-04-28T01:04:51.150Z,5.18
2023-04-28T01:07:17.504Z,4.97
2023-04-28T01:09:44.235Z,6.25
2023-04-28T01:12:10.634Z,7.80
2023-04-28T01:14:37.306Z,8.57
2023-04-28T01:17:03.868Z,5.20
2023-04-28T01:19:30.372Z,4.80
2023-04-28T01:21:56.865Z,6.20
2023-04-28T01:24:23.302Z,5.80
2023-04-28T01:26:49.717Z,5.72
2023-04-28T01:29:16.080Z,5.88
2023-04-28T01:31:42.568Z,5.75
2023-04-28T01:34:08.948Z,5.75
2023-04-28T01:36:37.397Z,6.30
2023-04-28T01:39:04.594Z,6.65
2023-04-28T01:41:31.087Z,6.85
2023-04-28T01:43:57.485Z,6.28
2023-04-28T01:46:23.910Z,6.50
2023-04-28T01:48:50.414Z,6.47
2023-04-28T01:51:16.809Z,5.80
2023-04-28T01:53:43.251Z,5.90
2023-04-28T01:56:09.607Z,7.68
2023-04-28T01:58:36.091Z,7.82
2023-04-28T02:01:02.523Z,7.38
2023-04-28T02:03:29.168Z,7.88
2023-04-28T02:05:55.744Z,8.25
2023-04-28T02:08:22.234Z,6.75
2023-04-28T02:10:48.695Z,6.55
2023-04-28T02:13:15.087Z,6.07
2023-04-28T02:15:42.693Z,9.77
2023-04-28T02:18:10.434Z,10.30
2023-04-28T02:20:36.799Z,6.85
2023-04-28T02:23:03.187Z,5.20
2023-04-28T02:25:29.574Z,6.40
2023-04-28T02:27:56.172Z,5.95
2023-04-28T02:30:22.586Z,5.65
2023-04-28T02:32:49.329Z,9.55
2023-04-28T02:35:15.704Z,5.30
2023-04-28T02:37:42.114Z,8.02
2023-04-28T02:40:08.815Z,8.05
2023-04-28T02:42:35.314Z,6.85
2023-04-28T02:45:01.755Z,5.88
2023-04-28T02:47:28.205Z,6.88
2023-04-28T02:49:54.569Z,8.60
2023-04-28T02:52:20.988Z,6.10
2023-04-28T02:54:49.027Z,7.68
2023-04-28T02:57:15.624Z,7.57
2023-04-28T02:59:42.033Z,8.98
2023-04-28T03:02:09.184Z,8.02
2023-04-28T03:04:35.808Z,6.00
2023-04-28T03:07:02.328Z,5.18
2023-04-28T03:09:28.759Z,5.43
2023-04-28T03:11:55.149Z,6.80
2023-04-28T03:14:21.624Z,6.45
2023-04-28T03:16:48.259Z,6.63
2023-04-28T03:19:14.752Z,6.65
2023-04-28T03:21:41.205Z,6.43
2023-04-28T03:24:07.642Z,8.20
2023-04-28T03:26:34.119Z,6.68
2023-04-28T03:29:00.538Z,5.90
2023-04-28T03:31:26.983Z,8.02
2023-04-28T03:33:53.364Z,7.80
2023-04-28T03:36:19.805Z,9.00
2023-04-28T03:38:46.207Z,9.75
2023-04-28T03:41:12.577Z,8.32
2023-04-28T03:43:38.927Z,8.40
2023-04-28T03:46:08.018Z,11.57
2023-04-28T03:48:34.517Z,13.30
2023-04-28T03:51:00.931Z,9.90
2023-04-28T03:53:27.318Z,9.15
2023-04-28T03:55:53.796Z,10.55
2023-04-28T03:58:20.221Z,11.38
2023-04-28T04:00:46.756Z,13.85
2023-04-28T04:03:13.333Z,11.10
2023-04-28T04:05:40.522Z,12.65
2023-04-28T04:08:07.089Z,12.73
2023-04-28T04:10:33.487Z,12.75
2023-04-28T04:12:59.882Z,20.73
2023-04-28T04:15:26.289Z,14.77
2023-04-28T04:17:52.775Z,11.77
2023-04-28T04:20:19.177Z,14.43
2023-04-28T04:22:45.567Z,12.00
2023-04-28T04:25:11.929Z,10.60
2023-04-28T04:27:38.404Z,13.45
2023-04-28T04:30:05.452Z,12.27
2023-04-28T04:32:32.178Z,10.95
2023-04-28T04:34:58.549Z,11.23
2023-04-28T04:37:24.910Z,10.93
2023-04-28T04:39:53.680Z,10.77
2023-04-28T04:42:25.506Z,12.93
2023-04-28T04:44:52.322Z,10.60
2023-04-28T04:47:19.064Z,10.38
2023-04-28T04:49:45.468Z,11.43
2023-04-28T04:52:11.967Z,12.63
2023-04-28T04:54:38.392Z,12.45
2023-04-28T04:57:04.839Z,12.85
2023-04-28T04:59:31.246Z,14.93
2023-04-28T05:01:57.639Z,13.45
2023-04-28T05:04:24.365Z,13.10
2023-04-28T05:06:51.525Z,11.85
2023-04-28T05:09:17.909Z,10.48
2023-04-28T05:11:45.432Z,12.38
2023-04-28T05:14:12.011Z,14.30
2023-04-28T05:16:39.050Z,13.30
2023-04-28T05:19:05.670Z,10.45
2023-04-28T05:21:32.593Z,16.88
2023-04-28T05:23:59.015Z,15.18
2023-04-28T05:26:25.473Z,14.57
2023-04-28T05:28:51.938Z,10.57
2023-04-28T05:31:18.477Z,11.88
2023-04-28T05:33:45.017Z,11.63
2023-04-28T05:36:12.813Z,13.07
2023-04-28T05:38:39.474Z,9.18
2023-04-28T05:41:06.070Z,10.68
2023-04-28T05:43:32.439Z,11.52
2023-04-28T05:45:59.126Z,12.75
2023-04-28T05:48:25.635Z,10.10
2023-04-28T05:50:52.055Z,12.85
2023-04-28T05:53:18.499Z,11.90
2023-04-28T05:55:44.943Z,10.70
2023-04-28T05:58:11.335Z,13.35
2023-04-28T06:00:37.758Z,11.82
2023-04-28T06:03:04.269Z,10.20
2023-04-28T06:05:31.306Z,10.00
2023-04-28T06:07:57.967Z,12.77
2023-04-28T06:10:25.958Z,14.25
2023-04-28T06:12:52.344Z,11.90
2023-04-28T06:15:18.742Z,12.00
2023-04-28T06:17:45.638Z,11.20
2023-04-28T06:20:13.746Z,12.30
2023-04-28T06:22:41.369Z,11.75
2023-04-28T06:25:08.241Z,12.43
2023-04-28T06:27:34.629Z,10.60
2023-04-28T06:30:01.173Z,12.27
2023-04-28T06:32:27.610Z,13.95
2023-04-28T06:34:54.145Z,11.00
2023-04-28T06:37:20.706Z,11.02
2023-04-28T06:39:47.702Z,11.07
2023-04-28T06:42:16.297Z,13.35
2023-04-28T06:44:42.776Z,12.90
2023-04-28T06:47:09.354Z,12.48
2023-04-28T06:49:35.998Z,10.30
2023-04-28T06:52:02.495Z,9.45
2023-04-28T06:54:28.880Z,10.35
2023-04-28T06:56:55.365Z,14.20
2023-04-28T06:59:21.759Z,11.63
2023-04-28T07:01:48.189Z,11.88
2023-04-28T07:04:15.014Z,12.75
2023-04-28T07:06:41.654Z,13.80
2023-04-28T07:09:08.099Z,14.20
2023-04-28T07:11:34.465Z,12.18
2023-04-28T07:14:01.108Z,10.38
2023-04-28T07:16:28.089Z,13.30
2023-04-28T07:18:54.722Z,12.65
2023-04-28T07:21:21.766Z,11.23
2023-04-28T07:23:49.048Z,15.52
2023-04-28T07:26:16.419Z,12.20
2023-04-28T07:28:44.206Z,11.00
2023-04-28T07:31:10.608Z,13.35
2023-04-28T07:33:36.977Z,11.18
2023-04-28T07:36:03.532Z,11.50
2023-04-28T07:38:30.383Z,11.00
2023-04-28T07:40:56.805Z,13.77
2023-04-28T07:43:23.247Z,11.00
2023-04-28T07:45:50.042Z,9.38
2023-04-28T07:48:16.771Z,10.40
2023-04-28T07:50:43.301Z,12.68
2023-04-28T07:53:09.698Z,12.23
2023-04-28T07:55:36.634Z,13.50
2023-04-28T07:58:03.078Z,11.20
2023-04-28T08:00:29.477Z,12.30
2023-04-28T08:02:57.742Z,11.15
2023-04-28T08:05:24.612Z,13.88
2023-04-28T08:07:51.177Z,9.52
2023-04-28T08:10:17.650Z,11.43
2023-04-28T08:12:45.329Z,13.25
2023-04-28T08:15:12.350Z,12.75
2023-04-28T08:17:39.108Z,9.20
2023-04-28T08:20:06.841Z,9.55
2023-04-28T08:22:33.646Z,10.50
2023-04-28T08:25:00.063Z,11.38
2023-04-28T08:27:26.499Z,15.40
2023-04-28T08:29:52.908Z,11.52
2023-04-28T08:32:19.323Z,11.77
2023-04-28T08:34:45.731Z,14.43
2023-04-28T08:37:12.143Z,10.52
2023-04-28T08:39:38.497Z,10.13
2023-04-28T08:42:05.491Z,9.85
2023-04-28T08:44:39.147Z,10.82
2023-04-28T08:47:15.125Z,11.80
2023-04-28T08:49:41.975Z,10.48
2023-04-28T08:52:13.352Z,8.10
2023-04-28T08:54:41.085Z,10.50
2023-04-28T08:57:09.546Z,10.32
2023-04-28T08:59:39.366Z,9.00
2023-04-28T09:02:05.813Z,11.38
2023-04-28T09:04:32.395Z,10.15
2023-04-28T09:06:58.906Z,8.70
2023-04-28T09:09:27.446Z,9.25
2023-04-28T09:11:55.877Z,10.02
2023-04-28T09:14:23.694Z,9.85
2023-04-28T09:16:51.724Z,8.85
2023-04-28T09:19:18.265Z,10.60
2023-04-28T09:21:55.878Z,9.65
2023-04-28T09:24:31.345Z,9.95
2023-04-28T09:26:59.268Z,10.02
2023-04-28T09:29:25.995Z,8.57
2023-04-28T09:31:53.500Z,11.55
2023-04-28T09:34:21.879Z,11.18
2023-04-28T09:36:49.275Z,10.95
2023-04-28T09:39:15.758Z,8.90
2023-04-28T09:41:45.418Z,12.23
2023-04-28T09:44:19.535Z,13.43
2023-04-28T09:46:46.730Z,11.85
2023-04-28T09:49:13.678Z,9.88
2023-04-28T09:51:40.713Z,10.50
2023-04-28T09:54:07.335Z,10.55
2023-04-28T09:56:40.699Z,10.57
2023-04-28T10:01:38.673Z,10.00
2023-04-28T10:04:06.458Z,10.83
2023-04-28T10:06:36.812Z,10.25
2023-04-28T10:09:03.520Z,11.77
2023-04-28T10:11:30.618Z,12.02
2023-04-28T10:13:57.165Z,10.82
2023-04-28T10:16:24.191Z,10.20
2023-04-28T10:18:51.437Z,12.40
2023-04-28T10:21:18.948Z,12.63
2023-04-28T10:24:03.629Z,11.25
2023-04-28T10:26:58.819Z,13.63
2023-04-28T10:29:25.987Z,13.93
2023-04-28T10:32:16.899Z,12.18
2023-04-28T10:34:43.490Z,12.48
2023-04-28T10:37:09.898Z,10.85
2023-04-28T10:39:36.636Z,11.18
2023-04-28T10:42:03.343Z,11.35
2023-04-28T10:44:33.058Z,12.70
2023-04-28T10:47:03.951Z,11.55
2023-04-28T10:49:55.484Z,15.32
2023-04-28T10:52:37.748Z,11.95
2023-04-28T10:55:26.889Z,9.50
2023-04-28T10:58:14.985Z,11.70
2023-04-28T11:00:42.327Z,12.00
2023-04-28T11:03:08.961Z,11.95
2023-04-28T11:05:36.030Z,13.45
2023-04-28T11:08:30.096Z,10.30
2023-04-28T11:11:16.157Z,13.10
2023-04-28T11:13:43.413Z,9.32
2023-04-28T11:16:09.863Z,11.77
2023-04-28T11:19:04.850Z,10.23
2023-04-28T11:21:32.101Z,10.25
2023-04-28T11:23:59.017Z,11.20
2023-04-28T11:26:25.462Z,8.98
2023-04-28T11:28:53.876Z,11.68
2023-04-28T11:31:24.262Z,8.95
2023-04-28T11:33:54.308Z,7.68
2023-04-28T11:36:28.883Z,9.55
2023-04-28T11:38:57.111Z,8.65
2023-04-28T11:41:24.355Z,8.23
2023-04-28T11:43:51.224Z,7.97
2023-04-28T11:46:23.153Z,9.07
2023-04-28T11:49:00.509Z,8.25
2023-04-28T11:51:35.678Z,10.32
2023-04-28T11:54:03.417Z,10.65
2023-04-28T11:56:30.095Z,9.80
2023-04-28T11:59:04.701Z,9.10
2023-04-28T12:01:32.310Z,8.18
2023-04-28T12:03:59.129Z,8.35
2023-04-28T12:06:25.905Z,8.25
2023-04-28T12:08:52.822Z,9.32
2023-04-28T12:11:22.001Z,9.73
2023-04-28T12:14:10.052Z,9.57
2023-04-28T12:16:39.125Z,9.93
2023-04-28T12:19:09.852Z,10.98
2023-04-28T12:21:38.559Z,8.90
2023-04-28T12:24:35.904Z,9.10
2023-04-28T12:27:25.182Z,9.15
2023-04-28T12:29:51.747Z,9.52
2023-04-28T12:32:18.721Z,9.32
2023-04-28T12:34:46.587Z,9.18
2023-04-28T12:37:13.637Z,10.13
2023-04-28T12:39:41.312Z,9.50
2023-04-28T12:42:07.956Z,10.40
2023-04-28T12:44:35.777Z,12.95
2023-04-28T12:47:10.653Z,10.15
2023-04-28T12:49:37.549Z,9.27
2023-04-28T12:52:05.171Z,10.02
2023-04-28T12:54:31.640Z,9.40
2023-04-28T12:56:58.201Z,9.68
2023-04-28T12:59:24.759Z,11.40
2023-04-28T13:01:51.230Z,9.63
2023-04-28T13:04:18.966Z,10.48
2023-04-28T13:06:45.575Z,9.40
2023-04-28T13:09:12.225Z,14.07
2023-04-28T13:11:39.260Z,9.57
2023-04-28T13:14:05.732Z,9.98
2023-04-28T13:16:32.191Z,10.02
2023-04-28T13:18:58.674Z,11.18
2023-04-28T13:21:26.670Z,10.70
2023-04-28T13:23:54.213Z,10.27
2023-04-28T13:26:22.141Z,10.38
2023-04-28T13:28:48.627Z,10.57
2023-04-28T13:31:15.099Z,9.73
2023-04-28T13:33:41.482Z,10.57
2023-04-28T13:36:08.457Z,11.65
2023-04-28T13:38:35.279Z,10.93
2023-04-28T13:41:02.163Z,10.68
2023-04-28T13:43:28.666Z,11.52
2023-04-28T13:45:55.118Z,10.52
2023-04-28T13:48:21.531Z,10.25
2023-04-28T13:50:47.935Z,9.63
2023-04-28T13:53:14.351Z,10.30
2023-04-28T13:55:40.921Z,11.25
2023-04-28T13:58:07.984Z,11.90
2023-04-28T14:00:34.706Z,10.50
2023-04-28T14:03:01.584Z,11.38
2023-04-28T14:05:29.787Z,10.70
2023-04-28T14:07:57.961Z,10.95
2023-04-28T14:10:24.388Z,10.45
2023-04-28T14:12:50.768Z,9.82
2023-04-28T14:15:18.062Z,10.73
2023-04-28T14:17:44.614Z,10.70
2023-04-28T14:20:11.651Z,12.23
2023-04-28T14:22:41.144Z,11.50
2023-04-28T14:25:07.904Z,13.00
2023-04-28T14:27:34.352Z,12.77
2023-04-28T14:30:01.011Z,12.88
2023-04-28T14:32:27.505Z,13.07
2023-04-28T14:34:53.895Z,11.70
2023-04-28T14:37:20.521Z,14.02
2023-04-28T14:39:47.047Z,11.75
2023-04-28T14:42:13.446Z,11.90
2023-04-28T14:44:40.370Z,12.07
2023-04-28T14:47:06.816Z,12.27
2023-04-28T14:49:34.032Z,12.52
2023-04-28T14:52:00.775Z,11.82
2023-04-28T14:54:27.198Z,13.20
2023-04-28T14:56:53.607Z,11.10
2023-04-28T14:59:20.471Z,11.73
2023-04-28T15:01:47.139Z,12.00
2023-04-28T15:04:13.779Z,15.10
2023-04-28T15:06:40.347Z,14.02
2023-04-28T15:09:06.909Z,12.18
2023-04-28T15:11:33.288Z,13.18
2023-04-28T15:13:59.741Z,12.55
2023-04-28T15:16:26.219Z,11.02
2023-04-28T15:18:52.856Z,14.70
2023-04-28T15:21:19.301Z,11.43
2023-04-28T15:23:45.834Z,11.60
2023-04-28T15:26:12.332Z,11.90
2023-04-28T15:28:39.334Z,12.60
2023-04-28T15:31:05.782Z,11.95
2023-04-28T15:33:33.543Z,12.55
2023-04-28T15:35:59.907Z,12.15
2023-04-28T15:38:29.907Z,12.70
2023-04-28T15:40:56.424Z,13.38
2023-04-28T15:43:22.870Z,12.25
2023-04-28T15:45:49.267Z,12.98
2023-04-28T15:48:16.147Z,13.80
2023-04-28T15:50:42.892Z,15.68
2023-04-28T15:53:09.296Z,13.07
2023-04-28T15:55:35.715Z,14.02
2023-04-28T15:58:03.435Z,13.45
2023-04-28T16:00:30.237Z,13.45
2023-04-28T16:02:57.481Z,10.75
2023-04-28T16:05:23.961Z,11.13
2023-04-28T16:07:52.493Z,14.27
2023-04-28T16:10:18.930Z,15.55
2023-04-28T16:12:45.689Z,12.05
2023-04-28T16:15:13.150Z,11.07
2023-04-28T16:17:40.436Z,11.50
2023-04-28T16:20:09.640Z,12.77
2023-04-28T16:22:37.056Z,12.48
2023-04-28T16:25:04.047Z,12.75
2023-04-28T16:27:31.336Z,13.88
2023-04-28T16:29:57.815Z,14.05
2023-04-28T16:32:24.293Z,12.07
2023-04-28T16:34:51.133Z,13.18
2023-04-28T16:37:17.781Z,13.75
2023-04-28T16:39:44.225Z,14.27
2023-04-28T16:42:10.644Z,14.65
2023-04-28T16:44:37.074Z,14.63
2023-04-28T16:47:03.503Z,14.50
2023-04-28T16:49:29.961Z,16.02
2023-04-28T16:52:03.951Z,17.50
2023-04-28T16:54:31.369Z,19.08
2023-04-28T16:56:59.089Z,17.13
2023-04-28T16:59:29.326Z,16.38
2023-04-28T17:01:59.884Z,17.42
2023-04-28T17:04:27.113Z,17.20
2023-04-28T17:06:54.011Z,18.50
2023-04-28T17:09:21.485Z,20.67
2023-04-28T17:11:48.736Z,23.15
2023-04-28T17:14:15.532Z,20.27
2023-04-28T17:16:43.703Z,21.38
2023-04-28T17:19:11.248Z,21.63
2023-04-28T17:21:38.364Z,22.20
2023-04-28T17:24:04.869Z,21.90
2023-04-28T17:26:31.519Z,21.50
2023-04-28T17:28:58.852Z,23.58
2023-04-28T17:31:26.359Z,21.40
2023-04-28T17:33:53.753Z,23.10
2023-04-28T17:36:21.317Z,23.23
2023-04-28T17:38:47.736Z,22.33
2023-04-28T17:41:15.121Z,21.55
2023-04-28T17:43:41.568Z,26.55
2023-04-28T17:46:08.102Z,23.58
2023-04-28T17:48:34.711Z,23.40
2023-04-28T17:51:01.159Z,23.80
2023-04-28T17:53:27.560Z,24.63
2023-04-28T17:55:53.961Z,24.45
2023-04-28T17:58:20.655Z,20.85
2023-04-28T18:00:47.123Z,24.10
2023-04-28T18:03:13.533Z,24.85
2023-04-28T18:05:39.952Z,23.33
2023-04-28T18:08:06.582Z,23.67
2023-04-28T18:10:33.771Z,19.77
2023-04-28T18:13:00.384Z,21.20
2023-04-28T18:15:26.949Z,19.20
2023-04-28T18:17:53.450Z,17.45
2023-04-28T18:20:19.849Z,13.57
2023-04-28T18:22:46.236Z,15.10
2023-04-28T18:25:16.624Z,11.27
2023-04-28T18:27:43.400Z,10.45
2023-04-28T18:30:10.436Z,10.57
2023-04-28T18:32:36.996Z,9.05
2023-04-28T18:35:03.484Z,8.10
2023-04-28T18:37:29.982Z,8.60
2023-04-28T18:39:57.166Z,8.30
2023-04-28T18:42:24.384Z,8.35
2023-04-28T18:44:58.255Z,8.80
2023-04-28T18:47:25.477Z,9.00
2023-04-28T18:49:52.230Z,9.07
2023-04-28T18:52:18.892Z,8.90
2023-04-28T18:54:45.404Z,9.18
2023-04-28T18:57:12.650Z,8.80
2023-04-28T18:59:39.317Z,9.30
2023-04-28T19:02:05.725Z,9.50
2023-04-28T19:04:32.228Z,9.70
2023-04-28T19:06:58.946Z,9.75
2023-04-28T19:09:25.489Z,9.82
2023-04-28T19:11:51.970Z,10.40
2023-04-28T19:14:18.361Z,10.20
2023-04-28T19:16:44.815Z,10.50
2023-04-28T19:19:11.317Z,10.90
2023-04-28T19:21:42.568Z,10.10
2023-04-28T19:24:09.060Z,10.40
2023-04-28T19:26:35.576Z,10.40
2023-04-28T19:29:02.210Z,11.35
2023-04-28T19:31:28.688Z,12.27
2023-04-28T19:33:55.278Z,11.40
2023-04-28T19:36:22.362Z,11.93
2023-04-28T19:38:48.771Z,11.05
2023-04-28T19:41:15.233Z,11.00
2023-04-28T19:43:43.375Z,11.38
2023-04-28T19:46:10.033Z,11.40
2023-04-28T19:48:36.684Z,12.80
2023-04-28T19:51:03.157Z,11.77
2023-04-28T19:53:29.572Z,12.20
2023-04-28T19:55:57.248Z,11.23
2023-04-28T19:58:23.691Z,12.00
2023-04-28T20:00:50.119Z,12.23
2023-04-28T20:03:17.355Z,11.20
2023-04-28T20:05:43.998Z,12.38
2023-04-28T20:08:12.386Z,13.25
2023-04-28T20:10:38.867Z,11.88
2023-04-28T20:13:06.946Z,10.38
2023-04-28T20:15:33.498Z,11.40
2023-04-28T20:18:00.019Z,11.18
2023-04-28T20:20:26.556Z,11.77
2023-04-28T20:22:53.202Z,12.25
2023-04-28T20:25:19.779Z,11.68
2023-04-28T20:27:46.879Z,12.90
2023-04-28T20:30:13.974Z,11.10
2023-04-28T20:32:40.627Z,10.93
2023-04-28T20:35:07.197Z,10.82
2023-04-28T20:37:33.584Z,10.80
2023-04-28T20:40:00.005Z,10.57
2023-04-28T20:42:27.511Z,10.60
2023-04-28T20:44:53.871Z,9.77
2023-04-28T20:47:20.303Z,10.90
2023-04-28T20:49:47.261Z,10.32
2023-04-28T20:52:13.681Z,11.57
2023-04-28T20:54:40.614Z,10.65
2023-04-28T20:57:09.159Z,11.15
2023-04-28T20:59:36.739Z,11.40
2023-04-28T21:02:03.342Z,12.55
2023-04-28T21:04:29.771Z,11.88
2023-04-28T21:06:56.381Z,13.02
2023-04-28T21:09:25.053Z,13.13
2023-04-28T21:11:51.729Z,12.98
2023-04-28T21:14:18.196Z,13.20
2023-04-28T21:16:44.607Z,13.80
2023-04-28T21:19:11.099Z,15.25
2023-04-28T21:21:37.947Z,12.90
2023-04-28T21:24:05.812Z,12.57
2023-04-28T21:26:32.260Z,11.95
2023-04-28T21:28:58.639Z,13.93
2023-04-28T21:31:25.357Z,13.05
2023-04-28T21:33:51.808Z,13.63
2023-04-28T21:36:18.240Z,13.80
2023-04-28T21:38:44.767Z,13.52
2023-04-28T21:41:12.957Z,12.90
2023-04-28T21:43:39.450Z,14.20
2023-04-28T21:46:06.014Z,13.93
2023-04-28T21:48:32.409Z,13.32
2023-04-28T21:50:59.927Z,14.63
2023-04-28T21:53:26.459Z,14.13
2023-04-28T21:55:52.840Z,14.55
2023-04-28T21:58:19.277Z,14.98
2023-04-28T22:00:48.499Z,15.07
2023-04-28T22:03:15.342Z,14.63
2023-04-28T22:05:42.526Z,14.30
2023-04-28T22:08:08.977Z,14.05
2023-04-28T22:10:36.364Z,15.50
2023-04-28T22:13:03.011Z,14.60
2023-04-28T22:15:29.480Z,15.82
2023-04-28T22:17:55.950Z,15.45
2023-04-28T22:20:22.430Z,16.50
2023-04-28T22:22:48.816Z,15.63
2023-04-28T22:25:15.295Z,16.50
2023-04-28T22:27:41.970Z,19.08
2023-04-28T22:30:08.806Z,16.50
2023-04-28T22:32:35.407Z,16.77
2023-04-28T22:35:01.839Z,17.90
2023-04-28T22:37:28.264Z,16.92
2023-04-28T22:39:54.671Z,17.42
2023-04-28T22:42:21.117Z,18.05
2023-04-28T22:44:47.616Z,18.73
2023-04-28T22:47:14.055Z,17.52
2023-04-28T22:49:40.411Z,17.73
2023-04-28T22:52:06.807Z,17.10
2023-04-28T22:54:33.167Z,20.02
2023-04-28T22:56:59.563Z,22.95
2023-04-28T22:59:26.538Z,27.48
2023-04-28T23:01:54.648Z,28.88
2023-04-28T23:04:21.718Z,28.08
2023-04-28T23:06:48.347Z,27.98
2023-04-28T23:09:14.745Z,26.90
2023-04-28T23:11:41.165Z,29.85
2023-04-28T23:14:07.592Z,32.25
2023-04-28T23:16:34.026Z,31.15
2023-04-28T23:19:00.484Z,32.25
2023-04-28T23:21:28.453Z,30.25
2023-04-28T23:23:54.857Z,31.73
2023-04-28T23:26:21.684Z,30.60
2023-04-28T23:28:48.547Z,35.80
2023-04-28T23:31:15.029Z,37.70
2023-04-28T23:33:41.454Z,43.88
2023-04-28T23:36:07.988Z,42.35
2023-04-28T23:38:34.946Z,41.25
2023-04-28T23:41:01.367Z,41.83
2023-04-28T23:43:27.773Z,47.50
2023-04-28T23:45:54.232Z,47.70
2023-04-28T23:48:20.646Z,50.03
2023-04-28T23:50:47.289Z,52.55
2023-04-28T23:53:13.920Z,57.67
2023-04-28T23:55:40.335Z,55.90
2023-04-28T23:58:06.716Z,57.13
